Time;durP1;ratioP1;P1;durP2;ratioP2;P2;SDS_P1;SDS_P2;PMS_P1;PMS_P2;Temp;Humidity;BMP_temperature;BMP_pressure;BME280_temperature;BME280_humidity;BME280_pressure;Samples;Min_cycle;Max_cycle;Signal;HPM_P1;HPM_P2
2024/04/11 00:00:26;;;;;;;;;2.00;2.00;;;;;15.16;54.32;103008.16;2184089;26;2740263;-76
2024/04/11 00:01:40;;;;;;;;;3.00;2.50;;;;;15.16;54.07;103008.16;2184705;25;2735678;-76
2024/04/11 00:02:53;;;;;;;;;4.00;4.00;;;;;15.18;54.16;103022.25;2197838;25;2732568;-76
2024/04/11 00:04:07;;;;;;;;;2.50;2.50;;;;;15.16;53.39;103010.81;2194310;25;2738754;-76
2024/04/11 00:05:21;;;;;;;;;3.17;3.00;;;;;15.17;54.19;103009.88;2176438;26;2733546;-76
2024/04/11 00:06:37;;;;;;;;;4.00;2.00;;;;;15.21;54.35;103016.88;2183344;25;2733579;-76
2024/04/11 00:07:51;;;;;;;;;3.00;2.00;;;;;15.16;54.29;103011.66;2183578;26;2737765;-76
2024/04/11 00:09:04;;;;;;;;;2.50;2.50;;;;;15.19;54.42;103010.72;2192422;25;2746084;-76
2024/04/11 00:10:18;;;;;;;;;2.00;2.00;;;;;15.19;54.13;103013.38;2196638;25;2744405;-76
2024/04/11 00:11:32;;;;;;;;;2.67;2.67;;;;;15.21;54.81;103011.56;2183006;25;2736744;-76
2024/04/11 00:12:46;;;;;;;;;2.83;2.83;;;;;15.22;53.90;103009.81;2198046;25;2739816;-76
2024/04/11 00:13:59;;;;;;;;;2.17;2.17;;;;;15.21;54.28;103011.56;2193520;25;2736662;-75
2024/04/11 00:15:13;;;;;;;;;2.83;2.83;;;;;15.21;54.55;103003.63;2189471;25;2734592;-75
2024/04/11 00:16:27;;;;;;;;;3.33;1.00;;;;;15.19;54.73;103000.13;2191884;25;2739804;-76
2024/04/11 00:17:41;;;;;;;;;2.00;1.83;;;;;15.22;55.11;103001.88;2188107;25;2739784;-76
2024/04/11 00:18:55;;;;;;;;;3.00;2.00;;;;;15.18;53.71;102996.63;2193382;25;2746086;-76
2024/04/11 00:20:09;;;;;;;;;3.00;3.00;;;;;15.21;54.19;102997.47;2194340;25;2739808;-75
2024/04/11 00:21:23;;;;;;;;;4.67;1.50;;;;;15.21;54.50;102998.34;2182309;25;2746055;-75
2024/04/11 00:22:37;;;;;;;;;1.67;1.67;;;;;15.17;53.97;102988.69;2188266;25;2739800;-76
2024/04/11 00:23:53;;;;;;;;;0.33;0.33;;;;;15.19;53.43;102994.84;2187860;25;2740818;-76
2024/04/11 00:25:06;;;;;;;;;3.00;1.33;;;;;15.17;53.50;102999.28;2189601;25;2733993;-76
2024/04/11 00:26:20;;;;;;;;;5.17;4.33;;;;;15.18;54.10;102993.09;2186269;25;2741877;-76
2024/04/11 00:27:34;;;;;;;;;2.83;1.00;;;;;15.15;54.60;102995.78;2185268;25;2735681;-75
2024/04/11 00:28:48;;;;;;;;;2.33;1.83;;;;;15.16;54.48;102998.41;2185701;25;2741894;-75
2024/04/11 00:30:02;;;;;;;;;3.17;1.00;;;;;15.16;54.23;102989.63;2185980;25;2739784;-76
2024/04/11 00:31:16;;;;;;;;;4.00;2.17;;;;;15.12;53.44;102982.59;2196598;25;2734621;-76
2024/04/11 00:32:30;;;;;;;;;3.00;1.83;;;;;15.13;53.34;102987.00;2198676;25;2746138;-76
2024/04/11 00:33:54;;;;;;;;;3.17;3.00;;;;;15.14;54.60;102986.09;2196497;25;2735625;-76
2024/04/11 00:35:08;;;;;;;;;1.67;1.67;;;;;15.12;55.04;102988.78;2198020;25;2739810;-76
2024/04/11 00:36:24;;;;;;;;;2.83;2.00;;;;;15.09;54.06;102983.53;2197666;25;2739804;-76
2024/04/11 00:37:37;;;;;;;;;0.50;0.50;;;;;15.10;54.66;102984.41;2183624;26;2740157;-76
2024/04/11 00:38:52;;;;;;;;;1.00;0.33;;;;;15.06;54.56;102981.78;2173942;26;2734572;-76
2024/04/11 00:40:07;;;;;;;;;2.00;2.00;;;;;15.08;54.59;102981.78;2185607;25;2737796;-76
2024/04/11 00:41:21;;;;;;;;;3.00;2.00;;;;;15.05;54.04;102973.88;2196136;25;2746308;-76
2024/04/11 00:42:35;;;;;;;;;1.50;1.50;;;;;15.03;53.47;102978.34;2189516;25;2743956;-76
2024/04/11 00:43:47;;;;;;;;;2.33;2.00;;;;;15.02;54.96;102980.09;2159640;25;2743994;-76
2024/04/11 00:45:01;;;;;;;;;3.17;2.00;;;;;14.98;54.72;102977.53;2224984;25;2736671;-76
2024/04/11 00:46:15;;;;;;;;;2.83;1.83;;;;;14.98;54.69;102977.53;2196811;25;2737083;-76
2024/04/11 00:47:29;;;;;;;;;2.67;1.17;;;;;14.94;54.60;102980.22;2183932;25;2734620;-76
2024/04/11 00:48:42;;;;;;;;;3.67;1.17;;;;;14.91;54.72;102971.47;2183498;26;2736672;-75
2024/04/11 00:49:57;;;;;;;;;1.83;1.83;;;;;14.89;54.16;102965.31;2197651;25;2733576;-76
2024/04/11 00:51:11;;;;;;;;;1.67;1.50;;;;;14.89;54.84;102978.56;2190315;25;2730413;-76
2024/04/11 00:52:24;;;;;;;;;1.67;0.83;;;;;14.87;54.77;102981.22;2195358;25;2733543;-76
2024/04/11 00:53:40;;;;;;;;;3.67;1.17;;;;;14.87;55.18;102982.97;2192267;25;2740877;-76
2024/04/11 00:54:54;;;;;;;;;0.50;0.33;;;;;14.82;54.62;102975.97;2186942;25;2736675;-76
2024/04/11 00:56:08;;;;;;;;;2.17;1.00;;;;;14.84;55.03;102979.44;2196380;25;2738027;-75
2024/04/11 00:57:24;;;;;;;;;1.83;1.83;;;;;14.81;55.17;102978.63;2194568;25;2740903;-76
2024/04/11 00:58:38;;;;;;;;;2.17;1.33;;;;;14.80;55.43;102985.69;2183436;26;2746062;-76
2024/04/11 00:59:52;;;;;;;;;3.33;1.17;;;;;14.81;55.22;102990.09;2198527;25;2735634;-76
2024/04/11 01:01:06;;;;;;;;;2.00;2.00;;;;;14.78;55.59;102981.31;2195016;25;2735657;-76
2024/04/11 01:02:20;;;;;;;;;3.00;1.00;;;;;14.76;55.44;102980.47;2180174;25;2746609;-76
2024/04/11 01:03:34;;;;;;;;;1.17;1.17;;;;;14.74;54.94;102988.44;2170973;25;2735664;-76
2024/04/11 01:04:48;;;;;;;;;1.17;1.17;;;;;14.74;55.41;102993.75;2172291;26;2722108;-76
2024/04/11 01:06:03;;;;;;;;;1.83;1.83;;;;;14.72;55.37;102987.56;2169670;26;2734879;-76
2024/04/11 01:07:17;;;;;;;;;1.00;1.00;;;;;14.70;55.04;102987.59;2184488;26;2728370;-75
2024/04/11 01:08:31;;;;;;;;;1.00;0.00;;;;;14.72;55.01;102985.81;2183013;25;2735629;-76
2024/04/11 01:09:46;;;;;;;;;3.83;2.17;;;;;14.72;55.05;102983.16;2186681;25;2733576;-75
2024/04/11 01:10:59;;;;;;;;;3.83;1.83;;;;;14.71;55.83;102980.53;2181673;25;2742326;-76
2024/04/11 01:12:16;;;;;;;;;1.67;1.00;;;;;14.73;54.83;102984.91;2182097;26;2735887;-76
2024/04/11 01:13:30;;;;;;;;;1.50;1.17;;;;;14.71;55.67;102989.38;2191092;25;2737713;-76
2024/04/11 01:14:45;;;;;;;;;1.67;1.67;;;;;14.72;55.19;102987.56;2195465;25;2743950;-76
2024/04/11 01:15:58;;;;;;;;;1.83;1.83;;;;;14.70;55.41;102989.38;2180856;25;2733554;-76
2024/04/11 01:17:17;;;;;;;;;1.83;1.83;;;;;14.70;55.58;102989.38;2196522;25;2742928;-76
2024/04/11 01:18:31;;;;;;;;;1.50;1.00;;;;;14.68;56.13;102992.06;2192306;25;2734580;-76
2024/04/11 01:19:49;;;;;;;;;2.17;1.67;;;;;14.69;55.80;102995.59;2184563;26;2737713;-76
2024/04/11 01:21:03;;;;;;;;;1.50;1.50;;;;;14.68;54.97;103000.00;2184182;25;2734580;-76
2024/04/11 01:22:18;;;;;;;;;3.83;1.83;;;;;14.66;56.15;103000.91;2172400;25;2739812;-76
2024/04/11 01:23:32;;;;;;;;;1.83;0.83;;;;;14.62;55.13;103000.94;2191102;25;2731463;-76
2024/04/11 01:24:45;;;;;;;;;3.00;1.83;;;;;14.61;55.84;103004.50;2182217;25;2746034;-76
2024/04/11 01:26:01;;;;;;;;;4.00;2.67;;;;;14.59;56.07;102997.47;2183635;25;2741970;-76
2024/04/11 01:27:15;;;;;;;;;1.00;1.00;;;;;14.61;55.77;103000.97;2197153;25;2729376;-76
2024/04/11 01:28:31;;;;;;;;;1.00;1.00;;;;;14.58;55.21;102998.38;2191489;25;2733994;-76
2024/04/11 01:29:45;;;;;;;;;3.17;1.67;;;;;14.59;55.40;103000.13;2186304;25;2731462;-76
2024/04/11 01:30:59;;;;;;;;;2.67;1.00;;;;;14.57;55.29;102991.34;2194568;25;2737744;-75
2024/04/11 01:32:13;;;;;;;;;3.67;1.83;;;;;14.58;55.81;102995.72;2185918;25;2740847;-75
2024/04/11 01:33:27;;;;;;;;;0.33;0.33;;;;;14.55;55.34;102995.75;2192467;25;2727335;-76
2024/04/11 01:34:41;;;;;;;;;2.50;2.00;;;;;14.56;55.76;102995.75;2182347;26;2741867;-75
2024/04/11 01:35:54;;;;;;;;;2.17;1.83;;;;;14.54;55.63;102991.38;2184973;25;2733602;-76
2024/04/11 01:37:08;;;;;;;;;1.33;1.33;;;;;14.54;55.62;103004.59;2185994;25;2732547;-75
2024/04/11 01:38:22;;;;;;;;;2.17;1.67;;;;;14.49;56.21;102992.28;2197507;25;2731469;-76
2024/04/11 01:39:37;;;;;;;;;1.33;1.33;;;;;14.51;56.06;103008.16;2196977;25;2728338;-76
2024/04/11 01:40:50;;;;;;;;;2.33;2.00;;;;;14.50;55.99;103003.75;2195473;25;2728632;-76
2024/04/11 01:42:04;;;;;;;;;1.00;1.00;;;;;14.48;56.21;102998.50;2193599;25;2725249;-76
2024/04/11 01:43:18;;;;;;;;;2.83;2.17;;;;;14.47;56.06;102990.59;2181792;25;2742952;-76
2024/04/11 01:44:32;;;;;;;;;2.50;2.50;;;;;14.49;55.65;102997.56;2183282;25;2736743;-76
2024/04/11 01:45:46;;;;;;;;;5.50;2.50;;;;;14.45;55.80;102993.22;2187505;25;2729444;-76
2024/04/11 01:47:00;;;;;;;;;2.00;2.00;;;;;14.47;56.26;102995.88;2183234;25;2737735;-76
2024/04/11 01:48:13;;;;;;;;;1.50;1.50;;;;;14.48;55.77;102994.97;2193063;25;2733534;-76
2024/04/11 01:49:31;;;;;;;;;1.67;1.17;;;;;14.46;56.39;102989.72;2197522;25;2725254;-75
2024/04/11 01:50:42;;;;;;;;;2.67;2.00;;;;;14.48;56.44;102997.63;2158469;25;2739807;-75
2024/04/11 01:51:56;;;;;;;;;3.50;2.33;;;;;14.45;55.96;102982.66;2207916;26;2739799;-76
2024/04/11 01:53:07;;;;;;;;;4.00;2.33;;;;;14.50;56.82;103002.00;2182185;25;2746055;-76
2024/04/11 01:54:21;;;;;;;;;2.83;2.67;;;;;14.48;56.57;102989.69;2223355;25;2739792;-76
2024/04/11 01:55:35;;;;;;;;;4.83;2.83;;;;;14.50;57.10;102986.13;2221084;25;2742918;-76
2024/04/11 01:56:46;;;;;;;;;2.00;2.00;;;;;14.49;56.27;102986.16;2159609;25;2742969;-76
2024/04/11 01:58:02;;;;;;;;;2.33;2.33;;;;;14.49;56.27;102980.84;2211043;25;2731502;-76
2024/04/11 01:59:16;;;;;;;;;4.00;3.00;;;;;14.53;56.73;102982.56;2208646;25;2739788;-76
2024/04/11 02:00:36;;;;;;;;;3.00;2.50;;;;;14.54;56.61;102975.50;2195721;25;2750249;-76
2024/04/11 02:01:50;;;;;;;;;2.67;2.00;;;;;14.52;56.93;102976.38;2212566;25;2722125;-76
2024/04/11 02:03:08;;;;;;;;;4.33;3.17;;;;;14.54;56.65;102978.13;2195631;25;2740856;-76
2024/04/11 02:04:23;;;;;;;;;4.50;3.33;;;;;14.55;57.42;102980.75;2197315;25;2739793;-76
2024/04/11 02:05:36;;;;;;;;;1.83;1.50;;;;;14.56;56.27;102979.00;2194475;25;2727297;-76
2024/04/11 02:06:51;;;;;;;;;6.17;2.33;;;;;14.55;57.52;102978.09;2188993;25;2748169;-76
2024/04/11 02:08:06;;;;;;;;;4.50;4.50;;;;;14.55;57.04;102978.09;2198018;25;2743964;-75
2024/04/11 02:09:22;;;;;;;;;5.00;4.67;;;;;14.54;57.22;102972.84;2220383;25;2748176;-76
2024/04/11 02:10:36;;;;;;;;;3.50;2.00;;;;;14.56;56.45;102986.94;2217786;25;2734687;-76
2024/04/11 02:11:53;;;;;;;;;6.50;3.33;;;;;14.56;56.67;102982.53;2181876;25;2755460;-76
2024/04/11 02:13:08;;;;;;;;;2.83;2.83;;;;;14.54;55.92;102979.03;2184163;25;2733549;-75
2024/04/11 02:14:23;;;;;;;;;3.00;3.00;;;;;14.56;57.27;102984.28;2184614;25;2733574;-76
2024/04/11 02:15:36;;;;;;;;;1.83;1.83;;;;;14.56;56.46;102977.22;2214599;25;2733539;-76
2024/04/11 02:16:52;;;;;;;;;1.50;1.33;;;;;14.55;56.29;102974.59;2183881;25;2728702;-75
2024/04/11 02:18:07;;;;;;;;;2.50;1.00;;;;;14.57;56.93;102978.97;2198754;25;2732799;-76
2024/04/11 02:19:20;;;;;;;;;1.00;1.00;;;;;14.57;56.51;102978.97;2199638;25;2721050;-75
2024/04/11 02:20:34;;;;;;;;;3.50;1.83;;;;;14.57;57.11;102978.97;2191469;25;2734088;-75
2024/04/11 02:21:48;;;;;;;;;5.50;5.50;;;;;14.57;57.12;102978.97;2180854;25;2752371;-75
2024/04/11 02:23:04;;;;;;;;;4.83;2.67;;;;;14.57;57.27;102978.97;2190657;25;2737715;-75
2024/04/11 02:24:18;;;;;;;;;1.83;1.83;;;;;14.58;57.46;102978.06;2199573;25;2733562;-76
2024/04/11 02:25:32;;;;;;;;;1.67;1.00;;;;;14.59;56.58;102979.81;2198123;25;2735653;-75
2024/04/11 02:26:48;;;;;;;;;1.67;1.67;;;;;14.60;56.86;102970.97;2194718;25;2730425;-76
2024/04/11 02:28:01;;;;;;;;;2.83;2.67;;;;;14.63;57.25;102970.94;2184021;25;2746063;-76
2024/04/11 02:29:17;;;;;;;;;2.17;2.17;;;;;14.61;56.85;102970.09;2183231;25;2739780;-76
2024/04/11 02:30:30;;;;;;;;;4.67;3.50;;;;;14.64;57.45;102974.47;2197904;25;2737729;-75
2024/04/11 02:31:47;;;;;;;;;2.17;1.83;;;;;14.62;57.19;102968.31;2195456;25;2732504;-75
2024/04/11 02:33:01;;;;;;;;;2.67;2.67;;;;;14.62;56.27;102963.88;2184578;25;2742928;-76
2024/04/11 02:34:16;;;;;;;;;1.67;1.33;;;;;14.64;56.47;102958.59;2192990;25;2730434;-76
2024/04/11 02:35:30;;;;;;;;;1.50;1.50;;;;;14.62;57.86;102957.72;2194742;25;2733601;-76
2024/04/11 02:36:43;;;;;;;;;2.17;2.00;;;;;14.60;57.21;102952.47;2194987;25;2736933;-76
2024/04/11 02:37:57;;;;;;;;;3.50;3.50;;;;;14.60;56.84;102963.03;2198179;25;2738742;-76
2024/04/11 02:39:12;;;;;;;;;4.00;3.00;;;;;14.61;55.90;102966.56;2199165;25;2739824;-76
2024/04/11 02:40:27;;;;;;;;;1.83;1.33;;;;;14.58;56.86;102969.25;2195773;25;2735625;-75
2024/04/11 02:41:41;;;;;;;;;1.83;1.83;;;;;14.52;57.20;102968.44;2198823;25;2737728;-75
2024/04/11 02:42:55;;;;;;;;;3.00;2.83;;;;;14.54;57.00;102968.44;2198011;25;2737776;-75
2024/04/11 02:44:09;;;;;;;;;2.00;2.00;;;;;14.57;56.72;102972.81;2183615;26;2737737;-75
2024/04/11 02:45:23;;;;;;;;;3.50;1.83;;;;;14.58;56.75;102969.25;2193671;25;2741875;-76
2024/04/11 02:46:39;;;;;;;;;1.67;1.67;;;;;14.55;56.61;102972.81;2194346;25;2736108;-76
2024/04/11 02:47:53;;;;;;;;;3.00;2.67;;;;;14.52;56.79;102960.50;2193633;25;2754419;-75
2024/04/11 02:49:07;;;;;;;;;4.67;2.83;;;;;14.52;56.84;102956.97;2184270;26;2750220;-76
2024/04/11 02:50:23;;;;;;;;;2.50;1.17;;;;;14.53;57.36;102958.75;2193127;25;2724204;-75
2024/04/11 02:51:37;;;;;;;;;3.50;2.00;;;;;14.54;57.14;102963.16;2197225;25;2743979;-76
2024/04/11 02:52:52;;;;;;;;;2.17;1.50;;;;;14.51;56.24;102950.84;2196246;25;2743994;-76
2024/04/11 02:54:05;;;;;;;;;1.17;1.17;;;;;14.51;56.43;102958.78;2198025;25;2744006;-75
2024/04/11 02:55:19;;;;;;;;;4.00;2.33;;;;;14.54;57.06;102960.50;2169081;26;2738204;-76
2024/04/11 02:56:33;;;;;;;;;2.50;2.33;;;;;14.53;57.59;102966.69;2181639;26;2742917;-75
2024/04/11 02:57:46;;;;;;;;;2.00;2.00;;;;;14.53;56.99;102969.31;2195412;25;2739208;-75
2024/04/11 02:59:00;;;;;;;;;2.33;2.00;;;;;14.51;57.17;102972.00;2188977;25;2728832;-76
2024/04/11 03:00:16;;;;;;;;;1.33;1.33;;;;;14.56;57.11;102987.81;2186882;25;2727299;-76
2024/04/11 03:01:33;;;;;;;;;3.33;2.00;;;;;14.55;58.05;102979.88;2191308;25;2724212;-75
2024/04/11 03:02:47;;;;;;;;;3.50;3.50;;;;;14.51;58.06;102982.59;2210369;25;2739209;-76
2024/04/11 03:04:01;;;;;;;;;4.00;3.00;;;;;14.51;57.00;102974.66;2192067;25;2731768;-75
2024/04/11 03:05:16;;;;;;;;;3.67;3.67;;;;;14.56;57.63;102984.28;2192049;25;2748125;-76
2024/04/11 03:06:31;;;;;;;;;4.00;3.00;;;;;14.55;56.69;102986.03;2184343;25;2746066;-76
2024/04/11 03:07:44;;;;;;;;;7.50;2.33;;;;;14.56;56.54;102981.63;2192203;25;2735617;-76
2024/04/11 03:09:00;;;;;;;;;2.83;1.83;;;;;14.53;57.41;102982.56;2182464;25;2737716;-76
2024/04/11 03:10:14;;;;;;;;;3.83;2.00;;;;;14.53;56.21;102982.56;2197804;25;2748117;-76
2024/04/11 03:11:28;;;;;;;;;2.33;2.33;;;;;14.52;57.94;102978.13;2185777;25;2732524;-76
2024/04/11 03:12:41;;;;;;;;;2.83;1.67;;;;;14.55;57.25;102974.59;2190505;25;2733611;-75
2024/04/11 03:13:57;;;;;;;;;2.50;2.33;;;;;14.57;56.20;102978.09;2183645;25;2750304;-75
2024/04/11 03:15:11;;;;;;;;;2.50;2.50;;;;;14.56;57.11;102965.75;2188684;25;2743979;-76
2024/04/11 03:16:30;;;;;;;;;3.17;1.83;;;;;14.57;57.14;102963.06;2170279;26;2732500;-76
2024/04/11 03:17:41;;;;;;;;;4.67;3.00;;;;;14.59;57.30;102963.06;2144714;26;2748176;-75
2024/04/11 03:18:55;;;;;;;;;2.67;2.67;;;;;14.58;56.99;102962.19;2194836;25;2741960;-76
2024/04/11 03:20:10;;;;;;;;;5.17;3.83;;;;;14.57;57.95;102959.59;2195936;26;2738763;-76
2024/04/11 03:21:24;;;;;;;;;4.50;3.00;;;;;14.56;58.13;102964.00;2181669;25;2739816;-75
2024/04/11 03:22:38;;;;;;;;;3.00;3.00;;;;;14.60;56.98;102964.81;2183217;26;2737738;-76
2024/04/11 03:23:53;;;;;;;;;2.50;2.00;;;;;14.60;57.32;102959.50;2194545;25;2725292;-76
2024/04/11 03:25:08;;;;;;;;;4.83;1.83;;;;;14.59;57.59;102963.94;2184718;25;2731451;-75
2024/04/11 03:26:22;;;;;;;;;4.00;4.00;;;;;14.61;58.39;102970.09;2196949;25;2750232;-76
2024/04/11 03:27:35;;;;;;;;;4.83;3.33;;;;;14.59;57.25;102961.28;2193794;25;2745029;-76
2024/04/11 03:28:49;;;;;;;;;5.33;4.17;;;;;14.62;57.48;102963.88;2196345;25;2743975;-75
2024/04/11 03:30:03;;;;;;;;;5.50;4.50;;;;;14.61;58.30;102967.44;2182167;25;2754399;-76
2024/04/11 03:31:21;;;;;;;;;3.17;3.17;;;;;14.58;58.06;102951.59;2188219;25;2736109;-75
2024/04/11 03:32:34;;;;;;;;;3.00;3.00;;;;;14.62;58.39;102961.25;2186303;25;2748125;-76
2024/04/11 03:33:50;;;;;;;;;1.67;1.67;;;;;14.63;58.26;102959.47;2183369;25;2727281;-76
2024/04/11 03:35:04;;;;;;;;;1.83;1.00;;;;;14.62;58.79;102963.00;2214889;25;2734887;-76
2024/04/11 03:36:19;;;;;;;;;3.83;2.33;;;;;14.60;58.48;102948.94;2217082;25;2738763;-76
2024/04/11 03:37:30;;;;;;;;;4.67;3.00;;;;;14.59;58.07;102957.78;2170985;25;2754390;-75
2024/04/11 03:38:44;;;;;;;;;2.33;2.17;;;;;14.57;59.29;102949.00;2222295;25;2740100;-75
2024/04/11 03:39:57;;;;;;;;;3.00;2.17;;;;;14.59;57.71;102957.78;2212683;25;2734616;-75
2024/04/11 03:41:12;;;;;;;;;2.83;2.83;;;;;14.57;57.52;102955.13;2178874;26;2735669;-75
2024/04/11 03:42:23;;;;;;;;;4.00;4.00;;;;;14.54;57.79;102955.22;2154790;25;2746061;-75
2024/04/11 03:43:41;;;;;;;;;2.50;1.67;;;;;14.55;58.68;102946.34;2218141;25;2737701;-75
2024/04/11 03:45:10;;;;;;;;;3.50;3.17;;;;;14.52;58.46;102947.28;2197820;25;2738742;-75
2024/04/11 03:46:24;;;;;;;;;4.50;3.67;;;;;14.48;58.88;102939.41;2196697;25;2745033;-75
2024/04/11 03:47:37;;;;;;;;;8.00;5.67;;;;;14.49;58.39;102941.16;2167950;25;2748201;-75
2024/04/11 03:48:56;;;;;;;;;4.00;4.00;;;;;14.50;58.21;102940.25;2209333;25;2736707;-76
2024/04/11 03:50:10;;;;;;;;;5.83;3.50;;;;;14.45;58.56;102937.66;2188749;25;2743268;-75
2024/04/11 03:51:23;;;;;;;;;2.00;2.00;;;;;14.46;58.31;102939.44;2167867;25;2747261;-75
2024/04/11 03:52:35;;;;;;;;;5.33;4.33;;;;;14.44;59.06;102937.72;2179847;25;2745011;-75
2024/04/11 03:53:48;;;;;;;;;4.00;4.00;;;;;14.45;59.19;102944.72;2181285;26;2744059;-76
2024/04/11 03:55:01;;;;;;;;;3.83;3.83;;;;;14.44;58.42;102943.00;2213962;25;2742942;-76
2024/04/11 03:56:15;;;;;;;;;3.33;3.33;;;;;14.41;57.91;102930.69;2189453;25;2752311;-76
2024/04/11 03:57:27;;;;;;;;;6.33;3.00;;;;;14.43;58.32;102934.19;2153564;26;2738775;-76
2024/04/11 03:58:45;;;;;;;;;3.00;3.00;;;;;14.43;59.00;102936.81;2216647;25;2754375;-75
2024/04/11 03:59:57;;;;;;;;;3.67;3.00;;;;;14.42;58.58;102935.06;2159364;25;2744047;-75
2024/04/11 04:01:18;;;;;;;;;5.50;3.00;;;;;14.46;59.33;102941.19;2224584;25;2736667;-75
2024/04/11 04:02:32;;;;;;;;;3.67;3.33;;;;;14.47;58.89;102948.25;2197443;25;2745037;-75
2024/04/11 04:03:47;;;;;;;;;6.00;3.67;;;;;14.48;59.86;102939.41;2195727;25;2743367;-76
2024/04/11 04:04:58;;;;;;;;;4.00;2.33;;;;;14.45;59.34;102936.78;2170649;25;2739921;-76
2024/04/11 04:06:13;;;;;;;;;4.00;2.67;;;;;14.47;59.59;102935.03;2223028;25;2741911;-75
2024/04/11 04:07:28;;;;;;;;;1.50;1.50;;;;;14.46;59.33;102935.91;2195871;25;2725231;-75
2024/04/11 04:08:46;;;;;;;;;2.83;2.83;;;;;14.46;59.21;102941.19;2192561;25;2748150;-75
2024/04/11 04:10:02;;;;;;;;;5.00;3.83;;;;;14.42;58.73;102934.22;2183267;25;2740826;-76
2024/04/11 04:11:22;;;;;;;;;3.00;3.00;;;;;14.45;58.49;102945.59;2192236;25;2743956;-75
2024/04/11 04:12:33;;;;;;;;;2.00;2.00;;;;;14.42;58.46;102943.00;2169352;25;2746134;-75
2024/04/11 04:13:44;;;;;;;;;7.33;3.33;;;;;14.43;58.72;102952.69;2180423;25;2756536;-76
2024/04/11 04:14:55;;;;;;;;;5.67;4.00;;;;;14.39;59.41;102951.88;2178880;26;2750225;-75
2024/04/11 04:16:11;;;;;;;;;3.50;3.50;;;;;14.42;58.58;102960.66;2207118;25;2752294;-75
2024/04/11 04:17:27;;;;;;;;;1.67;0.83;;;;;14.40;59.23;102958.91;2183200;25;2729419;-76
2024/04/11 04:18:38;;;;;;;;;4.00;4.00;;;;;14.43;58.88;102959.75;2161287;25;2743017;-76
2024/04/11 04:19:52;;;;;;;;;4.17;2.00;;;;;14.39;58.96;102953.66;2212891;25;2752311;-76
2024/04/11 04:21:07;;;;;;;;;4.00;2.50;;;;;14.38;59.09;102957.16;2181740;25;2743948;-75
2024/04/11 04:22:22;;;;;;;;;1.67;1.67;;;;;14.42;59.57;102963.31;2183716;25;2736672;-76
2024/04/11 04:23:36;;;;;;;;;1.00;0.83;;;;;14.45;59.17;102972.06;2189169;25;2739784;-76
2024/04/11 04:24:52;;;;;;;;;4.33;4.17;;;;;14.43;59.53;102963.28;2184056;25;2754398;-75
2024/04/11 04:26:08;;;;;;;;;3.00;3.00;;;;;14.44;59.77;102964.16;2198351;25;2734581;-76
2024/04/11 04:27:21;;;;;;;;;4.00;2.33;;;;;14.45;59.32;102965.91;2198289;25;2754381;-75
2024/04/11 04:28:38;;;;;;;;;3.83;3.17;;;;;14.48;59.35;102965.84;2195155;25;2750234;-75
2024/04/11 04:29:52;;;;;;;;;3.33;2.50;;;;;14.47;60.24;102964.13;2184170;25;2749185;-75
2024/04/11 04:31:12;;;;;;;;;2.67;2.33;;;;;14.49;59.36;102963.19;2184239;25;2743966;-75
2024/04/11 04:32:26;;;;;;;;;3.83;2.83;;;;;14.45;60.09;102960.59;2191943;25;2737696;-76
2024/04/11 04:33:40;;;;;;;;;2.50;2.50;;;;;14.49;59.30;102967.63;2198276;25;2736743;-75
2024/04/11 04:34:54;;;;;;;;;3.17;2.17;;;;;14.47;58.66;102962.34;2196128;25;2744004;-75
2024/04/11 04:36:15;;;;;;;;;4.33;1.33;;;;;14.48;59.36;102963.22;2168636;25;2743950;-75
2024/04/11 04:37:26;;;;;;;;;4.00;3.00;;;;;14.45;60.15;102960.59;2190863;25;2754380;-76
2024/04/11 04:38:41;;;;;;;;;4.33;3.67;;;;;14.46;59.52;102965.00;2221661;25;2742972;-76
2024/04/11 04:39:55;;;;;;;;;0.83;0.83;;;;;14.44;58.94;102961.50;2213471;25;2727341;-75
2024/04/11 04:41:09;;;;;;;;;2.33;1.50;;;;;14.40;59.33;102966.84;2206476;25;2754373;-76
2024/04/11 04:42:23;;;;;;;;;5.00;5.00;;;;;14.43;59.04;102970.34;2191806;25;2748152;-75
2024/04/11 04:43:38;;;;;;;;;6.17;3.33;;;;;14.40;59.27;102964.19;2196702;25;2748148;-76
2024/04/11 04:44:50;;;;;;;;;3.67;3.00;;;;;14.39;58.37;102959.81;2166798;25;2752312;-75
2024/04/11 04:46:05;;;;;;;;;2.17;2.17;;;;;14.36;58.95;102957.22;2208754;26;2727316;-76
2024/04/11 04:47:28;;;;;;;;;3.00;3.00;;;;;14.37;59.50;102956.28;2195177;25;2742973;-76
2024/04/11 04:48:42;;;;;;;;;4.17;3.17;;;;;14.36;59.38;102951.91;2211948;25;2741963;-76
2024/04/11 04:49:53;;;;;;;;;5.00;3.00;;;;;14.32;59.53;102946.69;2157968;25;2748175;-76
2024/04/11 04:51:04;;;;;;;;;3.67;2.00;;;;;14.33;59.36;102951.94;2181736;25;2750257;-75
2024/04/11 04:52:18;;;;;;;;;2.83;2.00;;;;;14.29;59.61;102952.88;2212359;25;2730402;-75
2024/04/11 04:53:33;;;;;;;;;7.17;4.83;;;;;14.29;60.22;102955.53;2195048;25;2743016;-75
2024/04/11 04:54:46;;;;;;;;;3.83;3.00;;;;;14.27;59.69;102962.63;2185356;25;2739788;-75
2024/04/11 04:56:03;;;;;;;;;4.17;3.83;;;;;14.25;59.95;102961.75;2197536;25;2737693;-74
2024/04/11 04:57:17;;;;;;;;;3.00;3.00;;;;;14.24;59.33;102967.94;2194622;25;2735733;-75
2024/04/11 04:58:31;;;;;;;;;3.17;3.17;;;;;14.23;59.37;102977.63;2184899;25;2748150;-75
2024/04/11 04:59:45;;;;;;;;;1.00;1.00;;;;;14.22;59.64;102973.25;2188260;25;2737724;-75
2024/04/11 05:01:00;;;;;;;;;5.17;1.67;;;;;14.19;59.95;102978.59;2196833;25;2737717;-75
2024/04/11 05:02:14;;;;;;;;;2.00;1.33;;;;;14.15;59.96;102976.84;2195092;25;2741891;-75
2024/04/11 05:03:31;;;;;;;;;4.50;2.83;;;;;14.11;60.29;102973.38;2195559;25;2754379;-75
2024/04/11 05:04:45;;;;;;;;;3.00;3.00;;;;;14.12;59.51;102982.19;2197509;25;2736703;-75
2024/04/11 05:06:02;;;;;;;;;4.00;4.00;;;;;14.05;60.12;102976.13;2178855;26;2754386;-75
2024/04/11 05:07:17;;;;;;;;;3.83;2.67;;;;;14.01;60.01;102966.44;2179177;25;2746046;-75
2024/04/11 05:08:34;;;;;;;;;2.00;2.00;;;;;14.03;60.22;102988.44;2197741;25;2741872;-75
2024/04/11 05:09:48;;;;;;;;;4.00;1.17;;;;;13.99;60.27;102990.28;2198047;25;2744441;-75
2024/04/11 05:11:10;;;;;;;;;4.83;3.17;;;;;13.97;60.18;102996.47;2172896;25;2728337;-75
2024/04/11 05:12:26;;;;;;;;;2.83;2.83;;;;;13.95;59.80;103000.00;2202247;26;2746069;-75
2024/04/11 05:13:45;;;;;;;;;4.50;3.83;;;;;13.93;60.49;102992.97;2209307;25;2737709;-75
2024/04/11 05:15:00;;;;;;;;;6.33;3.50;;;;;13.95;60.47;103000.00;2198950;25;2738188;-75
2024/04/11 05:16:18;;;;;;;;;2.50;2.00;;;;;13.91;60.87;102990.34;2196957;25;2740862;-75
2024/04/11 05:17:32;;;;;;;;;2.50;2.50;;;;;13.91;60.78;102995.63;2183694;26;2731511;-75
2024/04/11 05:18:47;;;;;;;;;2.00;2.00;;;;;13.95;61.13;103004.44;2190214;25;2746070;-75
2024/04/11 05:20:03;;;;;;;;;3.00;3.00;;;;;13.91;60.79;102993.00;2189273;25;2738814;-75
2024/04/11 05:21:24;;;;;;;;;4.50;4.50;;;;;13.95;60.35;102993.84;2186801;25;2735622;-75
2024/04/11 05:22:37;;;;;;;;;2.17;1.33;;;;;13.91;61.25;102986.81;2187652;25;2741916;-75
2024/04/11 05:23:52;;;;;;;;;3.00;3.00;;;;;13.97;60.84;102991.19;2196919;25;2746552;-75
2024/04/11 05:25:06;;;;;;;;;2.17;2.17;;;;;13.92;61.06;102986.81;2183676;26;2743995;-75
2024/04/11 05:26:23;;;;;;;;;5.67;4.17;;;;;13.94;61.62;103002.66;2189006;25;2734601;-75
2024/04/11 05:27:37;;;;;;;;;5.17;2.33;;;;;13.94;61.67;103000.03;2186818;25;2746337;-74
2024/04/11 05:28:52;;;;;;;;;4.67;3.50;;;;;13.95;61.18;102994.69;2189777;25;2736655;-75
2024/04/11 05:30:10;;;;;;;;;4.33;2.67;;;;;13.98;60.61;103001.72;2184623;25;2724215;-75
2024/04/11 05:31:27;;;;;;;;;4.17;4.17;;;;;14.00;61.51;103002.56;2191811;25;2737773;-75
2024/04/11 05:32:46;;;;;;;;;5.83;4.50;;;;;14.00;60.96;103002.56;2183592;25;2746041;-75
2024/04/11 05:34:06;;;;;;;;;4.33;3.17;;;;;14.01;61.23;103006.09;2182549;25;2731468;-75
2024/04/11 05:35:23;;;;;;;;;4.50;3.50;;;;;13.98;60.90;103001.72;2190017;25;2733578;-75
2024/04/11 05:36:34;;;;;;;;;4.33;4.00;;;;;14.01;61.44;102996.41;2169564;25;2750272;-75
2024/04/11 05:37:47;;;;;;;;;3.67;3.00;;;;;13.99;60.88;102989.38;2219182;25;2746064;-75
2024/04/11 05:39:03;;;;;;;;;3.83;3.83;;;;;14.01;61.05;102995.53;2180904;25;2741940;-75